Terminal Aerodrome Forecast
Issued by NWS Atlanta, GA

Current Version | Previous Version | Text Only | Print | Product List | Glossary On
Versions: 1 2 3 4 5 6 7 8 9 10 11 12 13 14 15 16 17 18 19 20 21 22 23 24 25 26 27 28 29 30 31 32 33 34 35 36 37 38 39 40 41 42 43 44
000
FTUS42 KFFC 200500
TAFATL
TAF
KATL 200529Z 2006/2112 25004KT P6SM FEW009 BKN250
     FM200900 26004KT 6SM BR BKN008
     FM201300 27005KT P6SM BKN020
     FM201500 29008KT P6SM SCT035
     FM201700 28010KT P6SM SCT045 PROB30 2018/2022 4SM -TSRA
      BKN030CB
     FM210200 28005KT P6SM FEW050
     FM210900 29004KT P6SM SCT012=

USA.gov is the U.S. government's official web portal to all federal, state and local government web resources and services.